Time;durP1;ratioP1;P1;durP2;ratioP2;P2;SDS_P1;SDS_P2;PMS_P1;PMS_P2;Temp;Humidity;BMP_temperature;BMP_pressure;BME280_temperature;BME280_humidity;BME280_pressure;Samples;Min_cycle;Max_cycle;Signal;HPM_P1;HPM_P2
2022/07/09 00:04:26;;;;;;;4.25;0.82;;;;;;;;;;21077720;28;20135;-62
2022/07/09 00:14:29;;;;;;;4.80;1.08;;;;;;;;;;21076574;28;20075;-62
2022/07/09 00:24:31;;;;;;;1.10;0.75;;;;;;;;;;21077369;28;20101;-61
2022/07/09 00:34:33;;;;;;;1.77;0.75;;;;;;;;;;21092114;28;20087;-62
2022/07/09 00:44:35;;;;;;;1.58;0.70;;;;;;;;;;21091734;28;20052;-62
2022/07/09 00:54:38;;;;;;;1.40;0.90;;;;;;;;;;21090817;28;20102;-61
2022/07/09 01:04:40;;;;;;;1.92;1.02;;;;;;;;;;21090019;28;20044;-63
2022/07/09 01:14:42;;;;;;;1.45;1.00;;;;;;;;;;21089836;28;20048;-63
2022/07/09 01:24:44;;;;;;;1.75;0.70;;;;;;;;;;21088804;28;20058;-61
2022/07/09 01:34:48;;;;;;;3.47;1.00;;;;;;;;;;21088512;28;20492;-63
2022/07/09 01:44:53;;;;;;;1.48;0.90;;;;;;;;;;21086109;28;20040;-63
2022/07/09 01:54:56;;;;;;;3.60;0.70;;;;;;;;;;21085629;28;20056;-62
2022/07/09 02:05:00;;;;;;;2.75;1.00;;;;;;;;;;21084741;28;20051;-62
2022/07/09 02:15:10;;;;;;;1.00;0.73;;;;;;;;;;21084768;28;20417;-62
2022/07/09 02:25:14;;;;;;;1.70;0.93;;;;;;;;;;21082220;28;20040;-62
2022/07/09 02:35:18;;;;;;;1.88;0.80;;;;;;;;;;21082183;28;20157;-62
2022/07/09 02:45:23;;;;;;;4.60;1.05;;;;;;;;;;21082891;28;20048;-62
2022/07/09 02:55:26;;;;;;;3.72;1.10;;;;;;;;;;21081555;28;20064;-62
2022/07/09 03:05:30;;;;;;;3.17;1.00;;;;;;;;;;21080454;28;20044;-62
2022/07/09 03:15:32;;;;;;;1.75;0.90;;;;;;;;;;21080033;28;20143;-63
2022/07/09 03:25:34;;;;;;;2.83;1.10;;;;;;;;;;21080121;28;20515;-62
2022/07/09 03:35:39;;;;;;;1.35;1.00;;;;;;;;;;21079121;28;20044;-62
2022/07/09 03:45:41;;;;;;;3.28;1.20;;;;;;;;;;21077951;28;20055;-62
2022/07/09 03:55:44;;;;;;;2.85;1.10;;;;;;;;;;21078389;28;20102;-63
2022/07/09 04:05:47;;;;;;;3.92;1.20;;;;;;;;;;21090856;28;20055;-62
2022/07/09 04:15:49;;;;;;;2.63;1.05;;;;;;;;;;21097471;28;20136;-64
2022/07/09 04:25:52;;;;;;;4.53;1.40;;;;;;;;;;21093710;28;20473;-62
2022/07/09 04:35:54;;;;;;;4.07;1.10;;;;;;;;;;21093346;28;20074;-63
2022/07/09 04:45:56;;;;;;;3.20;1.40;;;;;;;;;;21093311;28;20503;-63
2022/07/09 04:55:58;;;;;;;2.38;1.20;;;;;;;;;;21092628;28;20131;-63
2022/07/09 05:06:00;;;;;;;6.72;1.20;;;;;;;;;;21090423;28;20051;-64
2022/07/09 05:16:02;;;;;;;3.10;1.15;;;;;;;;;;21087634;28;20054;-63
2022/07/09 05:26:04;;;;;;;3.08;1.20;;;;;;;;;;21088070;28;20040;-63
2022/07/09 05:36:06;;;;;;;4.05;1.60;;;;;;;;;;21088566;28;20048;-62
2022/07/09 05:46:09;;;;;;;3.42;1.35;;;;;;;;;;21086377;28;20076;-61
2022/07/09 05:56:11;;;;;;;4.30;1.67;;;;;;;;;;21085722;28;20083;-61
2022/07/09 06:06:13;;;;;;;5.47;1.77;;;;;;;;;;21085238;28;20048;-61
2022/07/09 06:16:16;;;;;;;3.05;1.33;;;;;;;;;;21085224;28;20138;-61
2022/07/09 06:26:18;;;;;;;2.50;1.52;;;;;;;;;;21083057;28;20048;-62
2022/07/09 06:36:20;;;;;;;3.55;1.88;;;;;;;;;;21082449;28;20135;-62
2022/07/09 06:46:22;;;;;;;2.97;1.50;;;;;;;;;;21083220;28;20044;-63
2022/07/09 06:56:23;;;;;;;5.20;1.83;;;;;;;;;;21063464;28;20048;-61
2022/07/09 07:06:25;;;;;;;5.38;1.73;;;;;;;;;;21080939;28;20052;-63
2022/07/09 07:16:28;;;;;;;3.47;1.65;;;;;;;;;;21079567;28;20044;-62
2022/07/09 07:26:30;;;;;;;2.97;1.60;;;;;;;;;;21079380;28;20055;-64
2022/07/09 07:36:31;;;;;;;2.28;1.30;;;;;;;;;;21078743;28;20139;-63
2022/07/09 07:46:33;;;;;;;3.95;1.25;;;;;;;;;;21079581;28;20048;-63
2022/07/09 07:56:38;;;;;;;4.35;1.90;;;;;;;;;;21078663;28;20056;-62
2022/07/09 08:06:40;;;;;;;3.05;1.52;;;;;;;;;;21077165;28;20044;-62
2022/07/09 08:16:42;;;;;;;1.77;1.13;;;;;;;;;;21077486;28;20451;-62
2022/07/09 08:26:44;;;;;;;3.35;1.40;;;;;;;;;;21078998;28;20044;-62
2022/07/09 08:36:46;;;;;;;6.00;1.50;;;;;;;;;;21080728;28;20052;-62
2022/07/09 08:46:47;;;;;;;3.08;1.60;;;;;;;;;;21081620;28;20044;-64
2022/07/09 08:56:53;;;;;;;10.43;2.30;;;;;;;;;;21095908;28;20109;-63
2022/07/09 09:06:55;;;;;;;2.60;1.13;;;;;;;;;;21093244;28;20098;-62
2022/07/09 09:17:09;;;;;;;7.63;1.73;;;;;;;;;;21087274;28;20060;-62
2022/07/09 09:27:11;;;;;;;4.20;1.60;;;;;;;;;;21088841;28;20048;-61
2022/07/09 09:37:13;;;;;;;6.57;1.60;;;;;;;;;;21088987;28;20506;-62
2022/07/09 09:47:15;;;;;;;2.90;1.58;;;;;;;;;;21086425;28;20044;-63
2022/07/09 09:57:17;;;;;;;5.13;1.17;;;;;;;;;;21085201;28;20125;-62
2022/07/09 10:07:20;;;;;;;4.43;1.73;;;;;;;;;;21036688;28;20095;-62
2022/07/09 10:17:24;;;;;;;3.10;1.65;;;;;;;;;;21000700;28;20397;-62
2022/07/09 10:27:25;;;;;;;2.88;1.90;;;;;;;;;;20999042;28;20145;-63
2022/07/09 10:37:35;;;;;;;3.08;1.50;;;;;;;;;;20998243;28;20052;-63
2022/07/09 10:47:40;;;;;;;3.30;1.95;;;;;;;;;;20997854;28;20119;-62
2022/07/09 10:57:42;;;;;;;1.87;1.37;;;;;;;;;;20996809;28;20546;-64
2022/07/09 11:07:54;;;;;;;5.07;1.80;;;;;;;;;;20997134;28;20528;-63
2022/07/09 11:17:59;;;;;;;3.83;1.38;;;;;;;;;;20996246;28;20070;-63
2022/07/09 11:28:01;;;;;;;5.20;1.60;;;;;;;;;;20995326;28;20131;-64
2022/07/09 11:38:06;;;;;;;3.72;1.80;;;;;;;;;;20994449;28;20045;-63
2022/07/09 11:48:11;;;;;;;4.07;1.80;;;;;;;;;;20994536;28;20080;-62
2022/07/09 11:58:13;;;;;;;;;;;;;;;;;;20994278;28;20485;-63
2022/07/09 12:08:27;;;;;;;4.80;1.65;;;;;;;;;;20993536;28;19927;-63
2022/07/09 12:18:29;;;;;;;7.65;1.85;;;;;;;;;;20994245;28;20472;-63
2022/07/09 12:28:31;;;;;;;5.82;1.90;;;;;;;;;;21005700;28;20076;-62
2022/07/09 12:38:33;;;;;;;5.55;1.73;;;;;;;;;;21008096;28;20056;-62
2022/07/09 12:48:35;;;;;;;3.08;1.20;;;;;;;;;;20990227;28;20044;-63
2022/07/09 12:58:37;;;;;;;3.50;1.67;;;;;;;;;;21007015;28;20122;-62
2022/07/09 13:08:39;;;;;;;6.57;2.38;;;;;;;;;;21005717;28;20128;-65
2022/07/09 13:18:41;;;;;;;5.53;1.23;;;;;;;;;;21004600;28;20139;-63
2022/07/09 13:28:44;;;;;;;2.80;1.50;;;;;;;;;;21004739;28;20052;-62
2022/07/09 13:38:46;;;;;;;3.53;1.42;;;;;;;;;;21003284;28;20052;-62
2022/07/09 13:48:48;;;;;;;2.03;1.30;;;;;;;;;;21002531;28;20045;-62
2022/07/09 13:58:50;;;;;;;2.67;1.30;;;;;;;;;;21001043;28;20045;-61
2022/07/09 14:08:52;;;;;;;5.25;1.80;;;;;;;;;;20982280;28;20059;-63
2022/07/09 14:18:55;;;;;;;1.80;1.05;;;;;;;;;;20999980;28;20056;-63
2022/07/09 14:28:57;;;;;;;2.15;1.02;;;;;;;;;;21000213;28;20045;-63
2022/07/09 14:39:02;;;;;;;4.57;2.60;;;;;;;;;;20998222;28;20048;-63
2022/07/09 14:49:04;;;;;;;3.53;2.20;;;;;;;;;;20998122;28;20067;-62
2022/07/09 14:59:05;;;;;;;5.18;1.73;;;;;;;;;;20997325;28;20131;-63
2022/07/09 15:09:08;;;;;;;3.85;1.30;;;;;;;;;;20996064;28;20048;-63
2022/07/09 15:19:10;;;;;;;3.13;1.42;;;;;;;;;;20995429;28;20515;-62
2022/07/09 15:29:12;;;;;;;2.45;1.45;;;;;;;;;;20977161;28;20049;-64
2022/07/09 15:39:14;;;;;;;3.20;2.13;;;;;;;;;;20994872;28;20045;-64
2022/07/09 15:49:16;;;;;;;2.22;1.38;;;;;;;;;;20994926;28;20063;-63
2022/07/09 15:59:19;;;;;;;7.18;3.60;;;;;;;;;;21004454;28;20481;-63
2022/07/09 16:09:20;;;;;;;3.03;1.30;;;;;;;;;;21013091;28;20053;-63
2022/07/09 16:19:22;;;;;;;2.75;1.67;;;;;;;;;;20992114;28;20056;-63
2022/07/09 16:29:24;;;;;;;3.47;1.50;;;;;;;;;;21009324;28;20459;-63
2022/07/09 16:39:30;;;;;;;1.63;1.48;;;;;;;;;;21008587;28;20485;-63
2022/07/09 16:49:32;;;;;;;2.28;1.50;;;;;;;;;;21007252;28;20050;-63
2022/07/09 16:59:34;;;;;;;5.57;1.58;;;;;;;;;;21006582;28;20053;-63
2022/07/09 17:09:36;;;;;;;5.10;1.90;;;;;;;;;;21072243;28;20165;-62
2022/07/09 17:19:38;;;;;;;2.78;1.75;;;;;;;;;;21090016;28;20149;-63
2022/07/09 17:29:40;;;;;;;3.17;1.60;;;;;;;;;;21088653;28;20048;-62
2022/07/09 17:39:42;;;;;;;2.90;1.50;;;;;;;;;;21088571;28;20510;-64
2022/07/09 17:49:44;;;;;;;3.13;1.60;;;;;;;;;;21086767;28;20135;-64
2022/07/09 17:59:46;;;;;;;6.50;1.90;;;;;;;;;;21086864;28;20052;-64
2022/07/09 18:09:48;;;;;;;4.68;1.77;;;;;;;;;;21084849;28;20122;-63
2022/07/09 18:19:50;;;;;;;2.78;1.65;;;;;;;;;;21083469;28;20140;-64
2022/07/09 18:29:52;;;;;;;2.38;1.42;;;;;;;;;;21084803;28;20052;-65
2022/07/09 18:39:54;;;;;;;4.72;1.65;;;;;;;;;;21082754;28;20094;-64
2022/07/09 18:49:56;;;;;;;2.85;1.80;;;;;;;;;;21082306;28;20060;-64
2022/07/09 19:00:07;;;;;;;3.50;2.17;;;;;;;;;;21081084;28;20044;-64
2022/07/09 19:10:10;;;;;;;5.22;1.88;;;;;;;;;;21080551;28;20511;-64
2022/07/09 19:20:13;;;;;;;3.55;2.33;;;;;;;;;;21079611;28;20079;-65
2022/07/09 19:30:15;;;;;;;5.07;2.43;;;;;;;;;;21077585;28;20048;-64
2022/07/09 19:40:18;;;;;;;6.68;3.60;;;;;;;;;;21079121;28;20059;-64
2022/07/09 19:50:20;;;;;;;8.20;4.07;;;;;;;;;;21077962;28;20051;-64
2022/07/09 20:00:21;;;;;;;5.97;2.60;;;;;;;;;;21077521;28;20507;-62
2022/07/09 20:10:24;;;;;;;10.75;4.47;;;;;;;;;;21076574;28;20485;-62
2022/07/09 20:20:26;;;;;;;10.52;3.63;;;;;;;;;;21077449;28;20495;-64
2022/07/09 20:30:28;;;;;;;9.13;3.30;;;;;;;;;;21059220;28;20052;-63
2022/07/09 20:40:30;;;;;;;5.22;2.90;;;;;;;;;;21076636;28;20533;-63
2022/07/09 20:50:32;;;;;;;5.82;3.72;;;;;;;;;;21090676;28;20131;-64
2022/07/09 21:00:34;;;;;;;3.55;2.35;;;;;;;;;;21091654;28;20480;-64
2022/07/09 21:10:36;;;;;;;7.45;2.67;;;;;;;;;;21089483;28;20052;-63
2022/07/09 21:20:38;;;;;;;5.00;2.90;;;;;;;;;;21089771;28;20048;-64
2022/07/09 21:30:40;;;;;;;5.28;2.53;;;;;;;;;;21089123;28;20098;-62
2022/07/09 21:40:42;;;;;;;6.82;2.40;;;;;;;;;;21087832;28;20052;-62
2022/07/09 21:50:44;;;;;;;6.30;3.05;;;;;;;;;;21087405;28;20510;-63
2022/07/09 22:00:50;;;;;;;6.00;2.70;;;;;;;;;;21085699;28;20118;-63
2022/07/09 22:10:53;;;;;;;2.40;1.75;;;;;;;;;;21086893;28;20078;-64
2022/07/09 22:20:55;;;;;;;3.42;2.28;;;;;;;;;;21087773;28;20504;-63
2022/07/09 22:30:57;;;;;;;3.08;1.98;;;;;;;;;;21083484;28;20079;-62
2022/07/09 22:41:00;;;;;;;4.97;2.03;;;;;;;;;;21082652;28;20044;-63
2022/07/09 22:51:04;;;;;;;7.03;2.50;;;;;;;;;;21081560;28;20047;-63
2022/07/09 23:01:06;;;;;;;7.18;2.33;;;;;;;;;;21081713;28;20503;-64
2022/07/09 23:11:08;;;;;;;5.88;2.38;;;;;;;;;;21081007;28;20526;-64
2022/07/09 23:21:10;;;;;;;5.03;1.88;;;;;;;;;;21081358;28;20106;-63
2022/07/09 23:31:12;;;;;;;5.90;1.85;;;;;;;;;;21079363;28;20130;-63
2022/07/09 23:41:14;;;;;;;3.90;1.58;;;;;;;;;;21080020;28;20047;-62
2022/07/09 23:51:16;;;;;;;4.78;1.95;;;;;;;;;;21078746;28;20257;-63
